Time;durP1;ratioP1;P1;durP2;ratioP2;P2;SDS_P1;SDS_P2;PMS_P1;PMS_P2;Temp;Humidity;BMP_temperature;BMP_pressure;BME280_temperature;BME280_humidity;BME280_pressure;Samples;Min_cycle;Max_cycle;Signal;HPM_P1;HPM_P2
2022/08/17 00:03:53;;;;;;;14.97;8.33;;;;;;;21.43;63.20;99623.09;30986999;28;96904;-63
2022/08/17 00:18:53;;;;;;;11.63;7.93;;;;;;;21.05;64.34;99624.84;30985367;28;96650;-64
2022/08/17 00:33:54;;;;;;;11.47;8.47;;;;;;;20.68;65.52;99627.34;30983549;28;97508;-65
2022/08/17 00:48:55;;;;;;;12.73;8.90;;;;;;;20.44;66.46;99614.84;30981179;28;97086;-58
2022/08/17 01:03:56;;;;;;;11.93;8.93;;;;;;;20.34;67.18;99628.25;30980427;28;96672;-65
2022/08/17 01:19:11;;;;;;;17.13;10.07;;;;;;;20.26;67.68;99632.19;30979701;28;97414;-65
2022/08/17 01:34:14;;;;;;;11.37;8.83;;;;;;;20.17;68.11;99616.63;30978433;28;97436;-58
2022/08/17 01:49:14;;;;;;;11.70;9.70;;;;;;;19.98;68.74;99625.00;30976621;28;96716;-58
2022/08/17 02:04:15;;;;;;;13.75;9.70;;;;;;;19.70;69.63;99623.16;30975499;28;97289;-58
2022/08/17 02:19:16;;;;;;;16.13;10.00;;;;;;;19.57;70.26;99619.72;30975061;28;97249;-58
2022/08/17 02:34:16;;;;;;;15.60;10.40;;;;;;;19.38;70.92;99604.78;30973163;28;97478;-58
2022/08/17 02:49:17;;;;;;;15.77;10.93;;;;;;;19.17;71.77;99609.00;30971715;28;96830;-58
2022/08/17 03:04:17;;;;;;;18.50;10.45;;;;;;;19.08;72.29;99624.72;30969511;28;103919;-58
2022/08/17 03:19:17;;;;;;;15.50;11.07;;;;;;;18.97;72.73;99625.59;30981525;28;97309;-64
2022/08/17 03:34:18;;;;;;;17.83;10.57;;;;;;;18.84;73.19;99635.56;30987358;28;99961;-62
2022/08/17 04:04:38;;;;;;;19.00;11.87;;;;;;;18.78;74.27;99644.59;30982057;28;97009;-59
2022/08/17 04:19:38;;;;;;;18.77;11.53;;;;;;;19.07;74.38;99658.22;30981845;28;97443;-62
2022/08/17 04:34:38;;;;;;;17.35;11.02;;;;;;;19.47;74.24;99675.44;30980888;28;98395;-60
2022/08/17 04:49:39;;;;;;;16.95;10.90;;;;;;;19.88;73.72;99676.19;30978266;28;97398;-59
2022/08/17 05:04:40;;;;;;;12.32;9.65;;;;;;;20.39;72.86;99674.28;30974590;28;96842;-57
2022/08/17 05:19:40;;;;;;;12.30;8.13;;;;;;;21.11;71.66;99690.72;30974327;28;96908;-57
2022/08/17 05:34:41;;;;;;;12.40;7.57;;;;;;;21.97;69.44;99684.59;30974991;28;97568;-60
2022/08/17 05:49:41;;;;;;;11.07;7.03;;;;;;;22.90;67.01;99682.50;30972970;28;97564;-58
2022/08/17 06:05:03;;;;;;;11.37;6.30;;;;;;;23.89;64.17;99691.81;30971491;28;97313;-60
2022/08/17 06:20:09;;;;;;;10.83;7.30;;;;;;;24.74;60.72;99704.81;30969742;28;97684;-64
2022/08/17 06:35:12;;;;;;;11.73;7.03;;;;;;;25.65;58.18;99701.16;30970684;28;96774;-57
2022/08/17 06:50:25;;;;;;;13.50;7.60;;;;;;;26.61;54.92;99703.38;30971768;28;100139;-60
2022/08/17 07:05:35;;;;;;;13.87;7.33;;;;;;;27.64;51.37;99729.53;30986800;28;96924;-58
2022/08/17 07:20:41;;;;;;;10.00;7.60;;;;;;;28.72;48.51;99734.38;30984643;28;97393;-58
2022/08/17 07:35:43;;;;;;;12.70;6.50;;;;;;;29.70;45.15;99731.28;30986827;28;97482;-64
2022/08/17 07:50:44;;;;;;;15.57;6.80;;;;;;;30.33;42.94;99745.19;30984354;28;97639;-63
2022/08/17 08:05:50;;;;;;;11.68;6.28;;;;;;;32.05;39.32;99743.59;30982272;28;96739;-59
2022/08/17 08:20:55;;;;;;;9.27;6.50;;;;;;;32.65;36.80;99746.56;30979747;28;96722;-61
2022/08/17 08:36:14;;;;;;;15.63;8.30;;;;;;;33.63;34.94;99743.00;30979594;28;97289;-65
2022/08/17 08:51:38;;;;;;;11.17;6.73;;;;;;;34.26;33.56;99739.38;30977291;28;97576;-63
2022/08/17 09:06:47;;;;;;;9.77;6.03;;;;;;;35.50;30.52;99736.69;30977885;28;96831;-58
2022/08/17 09:21:54;;;;;;;7.43;4.77;;;;;;;37.33;28.15;99738.00;30972838;28;97394;-58
2022/08/17 09:37:00;;;;;;;7.67;5.17;;;;;;;42.08;21.63;99738.81;30974088;28;96768;-59
2022/08/17 09:52:12;;;;;;;6.33;5.00;;;;;;;40.64;22.91;99733.22;30972376;28;97153;-64
2022/08/17 10:07:25;;;;;;;7.77;5.73;;;;;;;40.24;23.96;99738.41;30970138;28;96936;-59
2022/08/17 10:51:36;;;;;;;5.33;4.83;;;;;;;39.23;23.63;99736.34;31080576;28;96730;-59
2022/08/17 11:06:36;;;;;;;7.20;4.93;;;;;;;39.68;22.99;99736.56;31069769;28;96926;-62
2022/08/17 11:21:59;;;;;;;6.35;5.40;;;;;;;39.84;22.71;99722.41;31072599;28;97529;-58
2022/08/17 11:37:24;;;;;;;7.60;5.00;;;;;;;39.18;23.07;99717.97;31070823;28;97335;-58
2022/08/17 11:52:46;;;;;;;6.93;5.00;;;;;;;39.26;22.13;99700.19;31040455;28;96817;-59
2022/08/17 12:07:51;;;;;;;9.63;4.67;;;;;;;39.57;22.66;99692.63;30985128;28;97458;-58
2022/08/17 12:23:14;;;;;;;8.87;4.93;;;;;;;40.58;21.75;99688.09;30982140;28;97002;-59
2022/08/17 12:38:15;;;;;;;6.37;4.27;;;;;;;39.86;21.84;99679.03;30975691;28;97563;-58
2022/08/17 12:53:20;;;;;;;6.85;4.95;;;;;;;39.86;21.96;99689.38;30970960;28;97007;-58
2022/08/17 13:08:50;;;;;;;6.67;5.20;;;;;;;39.15;23.00;99668.59;30971061;28;97600;-58
2022/08/17 13:24:10;;;;;;;8.50;6.27;;;;;;;38.97;24.03;99662.75;30960777;28;97121;-58
2022/08/17 13:39:20;;;;;;;8.17;6.83;;;;;;;37.83;24.90;99670.75;30966950;28;97345;-58
2022/08/17 13:54:36;;;;;;;7.60;5.87;;;;;;;37.56;25.61;99667.81;30966618;28;97353;-59
2022/08/17 14:09:42;;;;;;;11.20;7.00;;;;;;;37.23;25.23;99658.78;30964253;28;97377;-60
2022/08/17 14:24:42;;;;;;;6.67;4.40;;;;;;;36.76;24.61;99662.47;30963575;28;97432;-59
2022/08/17 14:39:42;;;;;;;6.22;4.65;;;;;;;36.09;25.61;99644.56;30792378;27;97265;-61
2022/08/17 14:54:43;;;;;;;8.10;4.70;;;;;;;36.05;26.00;99640.91;30773069;28;96870;-61
2022/08/17 15:09:44;;;;;;;6.75;4.53;;;;;;;34.86;26.86;99647.75;30765686;28;97287;-61
2022/08/17 15:24:44;;;;;;;6.90;4.50;;;;;;;34.07;28.31;99645.94;30803143;28;97550;-57
2022/08/17 15:39:45;;;;;;;6.47;4.70;;;;;;;33.68;29.12;99645.31;30750334;28;98020;-58
2022/08/17 15:54:52;;;;;;;20.58;5.28;;;;;;;33.67;28.67;99649.25;30732465;28;104586;-58
2022/08/17 16:09:53;;;;;;;5.83;4.40;;;;;;;33.65;28.67;99651.53;30732022;28;97502;-57
2022/08/17 16:24:53;;;;;;;6.35;4.93;;;;;;;33.17;28.72;99670.22;30835951;28;97980;-58
2022/08/17 16:39:54;;;;;;;15.88;11.93;;;;;;;33.00;29.76;99662.88;30778183;28;97257;-58
2022/08/17 16:54:54;;;;;;;5.43;4.43;;;;;;;32.83;30.04;99661.81;30735154;28;96744;-57
2022/08/17 17:09:54;;;;;;;10.57;8.40;;;;;;;32.48;30.86;99656.47;30851580;28;96906;-58
2022/08/17 17:25:07;;;;;;;12.02;4.22;;;;;;;32.13;31.48;99650.22;30868067;28;97872;-58
2022/08/17 17:40:21;;;;;;;10.63;5.27;;;;;;;31.78;33.28;99650.28;30961983;28;96744;-58
2022/08/17 17:55:31;;;;;;;11.03;5.33;;;;;;;31.10;35.60;99651.56;30976930;28;96690;-58
2022/08/17 18:10:45;;;;;;;16.97;5.90;;;;;;;30.57;37.63;99664.34;30968372;28;96690;-58
2022/08/17 18:25:53;;;;;;;9.50;6.60;;;;;;;29.92;38.33;99654.75;30894373;28;97151;-60
2022/08/17 18:41:16;;;;;;;9.43;6.57;;;;;;;29.38;40.02;99677.41;30906523;28;96700;-57
2022/08/17 18:56:23;;;;;;;10.93;7.20;;;;;;;28.86;41.75;99680.41;30964952;28;96783;-58
2022/08/17 19:11:32;;;;;;;9.53;6.80;;;;;;;28.40;43.57;99679.31;30984163;28;96786;-60
2022/08/17 19:26:39;;;;;;;12.20;7.60;;;;;;;28.29;44.66;99700.59;30978310;28;97336;-58
2022/08/17 19:41:56;;;;;;;17.27;7.90;;;;;;;28.05;45.95;99703.47;30979395;28;97285;-70
2022/08/17 19:57:19;;;;;;;14.13;7.70;;;;;;;27.67;47.57;99709.78;30982656;28;98019;-59
2022/08/17 20:12:25;;;;;;;11.17;7.83;;;;;;;27.47;48.86;99708.13;30979221;28;97313;-60
2022/08/17 20:27:30;;;;;;;11.97;8.20;;;;;;;27.00;49.32;99710.63;30976897;28;96758;-57
2022/08/17 20:42:32;;;;;;;12.30;9.00;;;;;;;26.65;49.86;99690.75;30975278;28;97118;-57
2022/08/17 20:57:35;;;;;;;11.43;9.83;;;;;;;26.30;50.46;99692.78;30975371;28;97523;-64
2022/08/17 21:12:50;;;;;;;12.60;8.90;;;;;;;26.06;50.62;99683.72;30971710;28;97552;-59
2022/08/17 21:28:05;;;;;;;11.40;8.37;;;;;;;25.33;51.46;99691.53;30861102;28;96919;-61
2022/08/17 21:43:16;;;;;;;11.57;8.87;;;;;;;24.62;52.84;99691.50;30858540;28;97066;-59
2022/08/17 21:58:30;;;;;;;10.33;9.23;;;;;;;24.64;53.60;99696.66;30858214;28;96793;-60
2022/08/17 22:13:31;;;;;;;10.63;9.53;;;;;;;24.32;54.30;99701.31;30857151;28;97111;-60
2022/08/17 22:28:44;;;;;;;13.17;9.90;;;;;;;24.27;55.80;99714.91;30856212;28;97320;-59
2022/08/17 22:43:44;;;;;;;14.07;9.93;;;;;;;24.49;55.34;99727.44;30854480;28;97271;-61
2022/08/17 23:14:21;;;;;;;15.37;10.33;;;;;;;23.94;57.91;99740.78;30851094;28;96794;-59
2022/08/17 23:29:22;;;;;;;16.33;10.77;;;;;;;23.37;58.50;99739.78;30852192;28;96672;-63
2022/08/17 23:44:22;;;;;;;13.53;10.83;;;;;;;22.77;59.91;99748.97;30851781;28;96771;-59
2022/08/17 23:59:23;;;;;;;13.32;11.48;;;;;;;22.41;60.95;99735.16;30869818;28;97456;-64
